Terminal Aerodrome Forecast
Issued by NWS

Home | Current Version | Previous Version | Text Only | Print | Product List | Glossary On
Versions: 1 2 3 4 5 6 7 8 9 10 11 12 13 14 15 16 17 18 19
000
FTUS46 KSEW 011300 AAA
TAFHQM
TAF AMD
KHQM 011318Z 0113/0212 VRB03KT P6SM SCT120 BKN250
      TEMPO 0113/0116 3SM BR
     FM012000 28008KT P6SM SCT200
     FM021000 21005KT 5SM BR SCT005
      TEMPO 0210/0212 2SM BR BKN002=

USA.gov is the U.S. government's official web portal to all federal, state and local government web resources and services.